createdAt,value
2019-01-09T00:33:06.445Z,-5.6
2019-01-09T00:33:56.497Z,-5.6
2019-01-09T00:34:47.072Z,-5.6
2019-01-09T00:35:40.403Z,-5.6
2019-01-09T00:36:27.169Z,-5.6
2019-01-09T00:37:16.952Z,-5.6
2019-01-09T00:38:06.749Z,-5.5
2019-01-09T00:38:56.807Z,-5.5
2019-01-09T00:39:46.582Z,-5.5
2019-01-09T00:40:37.170Z,-5.6
2019-01-09T00:41:27.580Z,-5.5
2019-01-09T00:42:17.357Z,-5.5
2019-01-09T00:43:07.445Z,-5.5
2019-01-09T00:43:57.677Z,-5.5
2019-01-09T00:44:47.459Z,-5.5
2019-01-09T00:45:37.515Z,-5.5
2019-01-09T00:46:27.859Z,-5.6
2019-01-09T00:47:17.341Z,-5.6
2019-01-09T00:48:07.963Z,-5.5
2019-01-09T00:48:56.919Z,-5.5
2019-01-09T00:49:47.547Z,-5.4
2019-01-09T00:50:37.309Z,-5.4
2019-01-09T00:51:27.639Z,-5.4
2019-01-09T00:52:18.239Z,-5.4
2019-01-09T00:53:08.307Z,-5.4
2019-01-09T00:53:58.067Z,-5.4
2019-01-09T00:54:48.136Z,-5.4
2019-01-09T00:55:37.931Z,-5.4
2019-01-09T00:56:28.246Z,-5.4
2019-01-09T00:57:18.031Z,-5.3
2019-01-09T00:58:08.623Z,-5.3
2019-01-09T00:58:57.936Z,-5.3
2019-01-09T00:59:48.198Z,-5.3
2019-01-09T01:00:38.069Z,-5.3
2019-01-09T01:01:28.577Z,-5.3
2019-01-09T01:02:19.008Z,-5.3
2019-01-09T01:03:08.511Z,-5.3
2019-01-09T01:03:58.873Z,-5.3
2019-01-09T01:04:48.813Z,-5.3
2019-01-09T01:05:47.501Z,-5.3
2019-01-09T01:06:28.073Z,-5.3
2019-01-09T01:07:18.703Z,-5.3
2019-01-09T01:08:09.038Z,-5.2
2019-01-09T01:08:58.534Z,-5.2
2019-01-09T01:09:49.473Z,-5.3
2019-01-09T01:10:39.465Z,-5.3
2019-01-09T01:11:28.973Z,-5.3
2019-01-09T01:12:19.311Z,-5.3
2019-01-09T01:13:08.835Z,-5.3
2019-01-09T01:13:59.412Z,-5.3
2019-01-09T01:14:48.905Z,-5.3
2019-01-09T01:15:39.247Z,-5.3
2019-01-09T01:16:29.590Z,-5.3
2019-01-09T01:17:19.390Z,-5.3
2019-01-09T01:18:10.070Z,-5.3
2019-01-09T01:18:59.750Z,-5.3
2019-01-09T01:19:50.147Z,-5.2
2019-01-09T01:20:40.144Z,-5.1
2019-01-09T01:21:29.647Z,-5.1
2019-01-09T01:22:19.142Z,-5.2
2019-01-09T01:23:10.242Z,-5.2
2019-01-09T01:23:59.820Z,-5.2
2019-01-09T01:24:49.887Z,-5.2
2019-01-09T01:25:40.474Z,-5.2
2019-01-09T01:26:30.004Z,-5.2
2019-01-09T01:27:20.324Z,-5.1
2019-01-09T01:28:10.646Z,-5.1
2019-01-09T01:29:00.155Z,-5.1
2019-01-09T01:29:50.485Z,-5.1
2019-01-09T01:30:40.542Z,-5.1
2019-01-09T01:31:30.605Z,-5.1
2019-01-09T01:32:20.367Z,-5
2019-01-09T01:33:10.729Z,-5
2019-01-09T01:34:00.769Z,-5
2019-01-09T01:34:51.184Z,-5.1
2019-01-09T01:35:41.147Z,-5
2019-01-09T01:36:30.656Z,-5.1
2019-01-09T01:37:20.993Z,-5.1
2019-01-09T01:38:11.050Z,-5
2019-01-09T01:39:00.831Z,-5
2019-01-09T01:39:51.450Z,-4.9
2019-01-09T01:40:41.479Z,-4.9
2019-01-09T01:41:31.544Z,-5
2019-01-09T01:42:21.602Z,-5
2019-01-09T01:43:11.389Z,-5
2019-01-09T01:44:01.716Z,-5.1
2019-01-09T01:44:51.756Z,-5.1
2019-01-09T01:45:41.589Z,-5.1
2019-01-09T01:46:31.054Z,-5.1
2019-01-09T01:47:21.643Z,-5.1
2019-01-09T01:48:11.436Z,-5
2019-01-09T01:49:01.783Z,-5
2019-01-09T01:49:52.121Z,-5
2019-01-09T01:50:41.901Z,-5
2019-01-09T01:51:31.937Z,-4.9
2019-01-09T01:52:22.265Z,-4.9
2019-01-09T01:53:12.131Z,-4.9
2019-01-09T01:54:01.926Z,-4.9
2019-01-09T01:54:52.178Z,-4.9
2019-01-09T01:55:42.498Z,-4.9
2019-01-09T01:56:32.312Z,-5
2019-01-09T01:57:22.325Z,-5.1
2019-01-09T01:58:11.860Z,-5.1
2019-01-09T01:59:02.828Z,-5
2019-01-09T01:59:52.581Z,-5
2019-01-09T02:00:42.282Z,-5
2019-01-09T02:01:32.885Z,-4.9
2019-01-09T02:02:22.779Z,-5
2019-01-09T02:03:12.452Z,-4.9
2019-01-09T02:04:02.783Z,-4.9
2019-01-09T02:04:53.102Z,-5
2019-01-09T02:05:42.878Z,-4.9
2019-01-09T02:06:32.938Z,-4.9
2019-01-09T02:07:22.992Z,-4.9
2019-01-09T02:08:13.317Z,-5
2019-01-09T02:09:02.826Z,-5
2019-01-09T02:09:53.454Z,-5
2019-01-09T02:10:43.222Z,-5.1
2019-01-09T02:11:32.745Z,-5
2019-01-09T02:12:23.602Z,-5
2019-01-09T02:13:12.830Z,-5
2019-01-09T02:14:03.719Z,-5
2019-01-09T02:14:53.232Z,-5
2019-01-09T02:15:43.569Z,-5
2019-01-09T02:16:33.618Z,-5
2019-01-09T02:17:23.394Z,-5.1
2019-01-09T02:18:13.484Z,-5.1
2019-01-09T02:19:03.786Z,-5.1
2019-01-09T02:19:53.574Z,-5.1
2019-01-09T02:20:43.886Z,-5.1
2019-01-09T02:21:34.251Z,-5.1
2019-01-09T02:22:24.279Z,-5.2
2019-01-09T02:23:13.776Z,-5.2
2019-01-09T02:24:04.398Z,-5.2
2019-01-09T02:24:54.553Z,-5.2
2019-01-09T02:25:43.396Z,-5.2
2019-01-09T02:26:34.278Z,-5.3
2019-01-09T02:27:24.061Z,-5.3
2019-01-09T02:28:14.676Z,-5.3
2019-01-09T02:29:04.731Z,-5.2
2019-01-09T02:29:54.235Z,-5.1
2019-01-09T02:30:44.291Z,-5.2
2019-01-09T02:31:34.918Z,-5.2
2019-01-09T02:32:24.134Z,-5.2
2019-01-09T02:33:14.723Z,-5.3
2019-01-09T02:34:05.129Z,-5.2
2019-01-09T02:34:54.870Z,-5.2
2019-01-09T02:35:44.675Z,-5.3
2019-01-09T02:36:34.965Z,-5.3
2019-01-09T02:37:24.801Z,-5.3
2019-01-09T02:38:15.091Z,-5.3
2019-01-09T02:39:05.450Z,-5.3
2019-01-09T02:39:55.203Z,-5.3
2019-01-09T02:40:45.532Z,-5.3
2019-01-09T02:41:35.293Z,-5.3
2019-01-09T02:42:25.354Z,-5.3
2019-01-09T02:43:15.405Z,-5.3
2019-01-09T02:44:05.750Z,-5.3
2019-01-09T02:44:55.816Z,-5.3
2019-01-09T02:45:45.301Z,-5.4
2019-01-09T02:46:35.658Z,-5.4
2019-01-09T02:47:25.991Z,-5.4
2019-01-09T02:48:15.497Z,-5.5
2019-01-09T02:49:06.123Z,-5.5
2019-01-09T02:49:55.308Z,-5.4
2019-01-09T02:50:45.762Z,-5.4
2019-01-09T02:51:35.413Z,-5.4
2019-01-09T02:52:26.079Z,-5.4
2019-01-09T02:53:16.369Z,-5.4
2019-01-09T02:54:05.905Z,-5.5
2019-01-09T02:54:56.494Z,-5.4
2019-01-09T02:55:46.582Z,-5.6
2019-01-09T02:56:36.317Z,-5.6
2019-01-09T02:57:27.071Z,-5.6
2019-01-09T02:58:16.697Z,-5.6
2019-01-09T02:59:06.512Z,-5.7
2019-01-09T02:59:56.806Z,-5.8
2019-01-09T03:00:46.602Z,-5.8
2019-01-09T03:01:36.169Z,-5.8
2019-01-09T03:02:26.730Z,-5.7
2019-01-09T03:03:16.764Z,-5.7
2019-01-09T03:04:06.853Z,-5.7
2019-01-09T03:04:57.136Z,-5.7
2019-01-09T03:05:46.930Z,-5.8
2019-01-09T03:06:37.271Z,-5.8
2019-01-09T03:07:27.354Z,-5.8
2019-01-09T03:08:17.525Z,-5.8
2019-01-09T03:09:07.138Z,-5.8
2019-01-09T03:09:56.952Z,-5.7
2019-01-09T03:10:47.533Z,-5.7
2019-01-09T03:11:37.308Z,-5.7
2019-01-09T03:12:27.368Z,-5.7
2019-01-09T03:13:17.443Z,-5.7
2019-01-09T03:14:07.534Z,-5.7
2019-01-09T03:14:57.285Z,-5.7
2019-01-09T03:15:47.399Z,-5.7
2019-01-09T03:16:37.713Z,-5.7
2019-01-09T03:17:26.957Z,-5.7
2019-01-09T03:18:17.208Z,-5.7
2019-01-09T03:19:07.826Z,-5.7
2019-01-09T03:19:58.160Z,-5.7
2019-01-09T03:20:48.033Z,-5.7
2019-01-09T03:21:37.993Z,-5.6
2019-01-09T03:22:27.756Z,-5.6
2019-01-09T03:23:18.146Z,-5.6
2019-01-09T03:24:08.014Z,-5.6
2019-01-09T03:24:58.027Z,-5.6
2019-01-09T03:25:48.290Z,-5.6
2019-01-09T03:26:38.413Z,-5.6
2019-01-09T03:27:27.563Z,-5.6
2019-01-09T03:28:18.437Z,-5.5
2019-01-09T03:29:08.503Z,-5.5
2019-01-09T03:29:58.260Z,-5.4
2019-01-09T03:30:48.174Z,-5.4
2019-01-09T03:31:38.443Z,-5.4
2019-01-09T03:32:28.907Z,-5.4
2019-01-09T03:33:19.043Z,-5.4
2019-01-09T03:34:09.108Z,-5.4
2019-01-09T03:34:58.872Z,-5.4
2019-01-09T03:35:49.207Z,-5.4
2019-01-09T03:36:38.448Z,-5.4
2019-01-09T03:37:28.782Z,-5.4
2019-01-09T03:38:18.831Z,-5.4
2019-01-09T03:39:08.912Z,-5.4
2019-01-09T03:39:59.215Z,-5.4
2019-01-09T03:40:49.559Z,-5.4
2019-01-09T03:41:39.313Z,-5.4
2019-01-09T03:42:29.374Z,-5.4
2019-01-09T03:43:19.212Z,-5.4
2019-01-09T03:44:09.025Z,-5.4
2019-01-09T03:44:59.418Z,-5.4
2019-01-09T03:45:49.602Z,-5.4
2019-01-09T03:46:40.091Z,-5.4
2019-01-09T03:47:29.756Z,-5.4
2019-01-09T03:48:19.769Z,-5.3
2019-01-09T03:49:10.086Z,-5.3
2019-01-09T03:49:59.184Z,-5.3
2019-01-09T03:50:49.661Z,-5.3
2019-01-09T03:51:39.708Z,-5.3
2019-01-09T03:52:30.423Z,-5.3
2019-01-09T03:53:19.824Z,-5.2
2019-01-09T03:54:10.173Z,-5.3
2019-01-09T03:55:00.262Z,-5.3
2019-01-09T03:55:50.280Z,-5.3
2019-01-09T03:56:40.335Z,-5.3
2019-01-09T03:57:30.394Z,-5.4
2019-01-09T03:58:19.883Z,-5.3
2019-01-09T03:59:10.613Z,-5.3
2019-01-09T04:00:01.047Z,-5.3
2019-01-09T04:00:50.886Z,-5.3
2019-01-09T04:01:40.393Z,-5.3
2019-01-09T04:02:30.728Z,-5.3
2019-01-09T04:03:20.660Z,-5.3
2019-01-09T04:04:11.110Z,-5.3
2019-01-09T04:05:00.987Z,-5.3
2019-01-09T04:05:51.218Z,-5.3
2019-01-09T04:06:44.167Z,-5.3
2019-01-09T04:07:30.532Z,-5.3
2019-01-09T04:08:21.092Z,-5.3
2019-01-09T04:09:11.187Z,-5.3
2019-01-09T04:10:01.642Z,-5.3
2019-01-09T04:10:51.082Z,-5.3
2019-01-09T04:11:40.772Z,-5.3
2019-01-09T04:12:31.113Z,-5.3
2019-01-09T04:13:20.912Z,-5.3
2019-01-09T04:14:11.497Z,-5.3
2019-01-09T04:15:02.015Z,-5.3
2019-01-09T04:15:51.357Z,-5.3
2019-01-09T04:16:42.107Z,-5.2
2019-01-09T04:17:31.767Z,-5.2
2019-01-09T04:18:22.047Z,-5.2
2019-01-09T04:19:11.847Z,-5.2
2019-01-09T04:20:01.632Z,-5.2
2019-01-09T04:20:51.654Z,-5.2
2019-01-09T04:21:41.780Z,-5.1
2019-01-09T04:22:32.351Z,-5.1
2019-01-09T04:23:22.394Z,-5.1
2019-01-09T04:24:12.184Z,-5.1
2019-01-09T04:25:02.161Z,-5.1
2019-01-09T04:25:52.340Z,-5.1
2019-01-09T04:26:42.338Z,-5.1
2019-01-09T04:27:31.583Z,-5.1
2019-01-09T04:28:22.543Z,-5.1
2019-01-09T04:29:12.781Z,-5
2019-01-09T04:30:02.879Z,-5
2019-01-09T04:30:52.950Z,-5
2019-01-09T04:31:42.763Z,-5
2019-01-09T04:32:32.739Z,-5
2019-01-09T04:33:23.206Z,-5
2019-01-09T04:34:12.850Z,-4.9
2019-01-09T04:35:02.961Z,-4.9
2019-01-09T04:35:53.083Z,-4.9
2019-01-09T04:36:52.764Z,-5
2019-01-09T04:37:33.054Z,-5
2019-01-09T04:38:22.604Z,-5.1
2019-01-09T04:39:12.894Z,-5.1
2019-01-09T04:40:03.401Z,-5.1
2019-01-09T04:40:52.735Z,-5.1
2019-01-09T04:41:42.786Z,-5.1
2019-01-09T04:42:33.403Z,-5
2019-01-09T04:43:23.449Z,-5
2019-01-09T04:44:13.493Z,-5
2019-01-09T04:45:03.611Z,-5
2019-01-09T05:02:24.032Z,-4.9
2019-01-09T05:03:13.819Z,-4.9
2019-01-09T05:04:04.164Z,-4.9
2019-01-09T05:04:53.157Z,-4.9
2019-01-09T05:05:44.346Z,-4.9
2019-01-09T05:06:34.301Z,-4.9
2019-01-09T05:07:24.397Z,-4.9
2019-01-09T05:08:13.859Z,-4.9
2019-01-09T05:09:04.741Z,-4.9
2019-01-09T05:09:56.498Z,-4.8
2019-01-09T05:10:44.578Z,-4.8
2019-01-09T05:11:34.906Z,-4.8
2019-01-09T05:12:24.969Z,-4.8
2019-01-09T05:13:14.716Z,-4.8
2019-01-09T05:14:04.793Z,-4.8
2019-01-09T05:14:54.934Z,-4.8
2019-01-09T05:15:45.200Z,-4.8
2019-01-09T05:16:34.965Z,-4.8
2019-01-09T05:17:25.066Z,-4.8
2019-01-09T05:18:15.447Z,-4.8
2019-01-09T05:19:05.398Z,-4.8
2019-01-09T05:19:54.643Z,-4.8
2019-01-09T05:20:45.017Z,-4.8
2019-01-09T05:21:35.296Z,-4.8
2019-01-09T05:22:25.070Z,-4.7
2019-01-09T05:23:15.150Z,-4.7
2019-01-09T05:24:05.232Z,-4.8
2019-01-09T05:24:55.236Z,-4.8
2019-01-09T05:25:45.860Z,-4.8
2019-01-09T05:26:35.640Z,-4.8
2019-01-09T05:27:25.695Z,-4.8
2019-01-09T05:28:16.013Z,-4.8
2019-01-09T05:29:05.813Z,-4.8
2019-01-09T05:29:55.830Z,-4.8
2019-01-09T05:30:45.906Z,-4.7
2019-01-09T05:31:35.970Z,-4.7
2019-01-09T05:32:26.287Z,-4.7
2019-01-09T05:33:16.354Z,-4.7
2019-01-09T05:34:06.190Z,-4.7
2019-01-09T05:34:55.906Z,-4.7
2019-01-09T05:35:46.520Z,-4.7
2019-01-09T05:36:36.027Z,-4.7
2019-01-09T05:37:26.374Z,-4.7
2019-01-09T05:38:16.694Z,-4.6
2019-01-09T05:39:06.552Z,-4.6
2019-01-09T05:39:56.504Z,-4.6
2019-01-09T05:40:46.582Z,-4.6
2019-01-09T05:41:36.626Z,-4.6
2019-01-09T05:42:26.989Z,-4.6
2019-01-09T05:43:16.730Z,-4.6
2019-01-09T05:44:06.825Z,-4.6
2019-01-09T05:44:59.044Z,-4.6
2019-01-09T05:45:46.080Z,-4.6
2019-01-09T05:46:37.232Z,-4.7
2019-01-09T05:47:27.027Z,-4.7
2019-01-09T05:48:17.091Z,-4.7
2019-01-09T05:49:07.152Z,-4.7
2019-01-09T05:49:57.202Z,-4.8
2019-01-09T05:50:47.577Z,-4.8
2019-01-09T05:51:37.566Z,-4.8
2019-01-09T05:52:27.141Z,-4.8
2019-01-09T05:53:17.108Z,-4.8
2019-01-09T05:54:07.451Z,-4.8
2019-01-09T05:54:56.965Z,-4.8
2019-01-09T05:55:47.359Z,-4.9
2019-01-09T05:56:37.340Z,-4.9
2019-01-09T05:57:27.951Z,-4.9
2019-01-09T05:58:17.992Z,-4.9
2019-01-09T05:59:08.058Z,-5
2019-01-09T05:59:57.298Z,-5
2019-01-09T06:00:48.175Z,-5
2019-01-09T06:01:37.675Z,-5
2019-01-09T06:02:29.600Z,-5.1
2019-01-09T06:03:18.338Z,-5.1
2019-01-09T06:04:08.393Z,-5.1
2019-01-09T06:04:58.173Z,-5.1
2019-01-09T06:05:48.233Z,-5.1
2019-01-09T06:06:38.010Z,-5.2
2019-01-09T06:07:28.361Z,-5.2
2019-01-09T06:08:18.673Z,-5.2
2019-01-09T06:09:08.475Z,-5.2
2019-01-09T06:09:58.520Z,-5.2
2019-01-09T06:10:48.580Z,-5.2
2019-01-09T06:11:38.355Z,-5.3
2019-01-09T06:12:28.408Z,-5.3
2019-01-09T06:13:19.002Z,-5.3
2019-01-09T06:14:09.063Z,-5.3
2019-01-09T06:14:58.830Z,-5.3
2019-01-09T06:15:49.163Z,-5.3
2019-01-09T06:16:38.955Z,-5.3
2019-01-09T06:17:29.008Z,-5.3
2019-01-09T06:18:18.777Z,-5.3
2019-01-09T06:19:08.580Z,-5.3
2019-01-09T06:19:59.545Z,-5.3
2019-01-09T06:20:49.230Z,-5.2
2019-01-09T06:21:39.289Z,-5.2
2019-01-09T06:22:29.615Z,-5.2
2019-01-09T06:23:19.387Z,-5.2
2019-01-09T06:24:09.437Z,-5.2
2019-01-09T06:24:59.588Z,-5.2
2019-01-09T06:25:49.887Z,-5.3
2019-01-09T06:26:39.717Z,-5.3
2019-01-09T06:27:29.964Z,-5.3
2019-01-09T06:28:20.099Z,-5.3
2019-01-09T06:29:10.063Z,-5.3
2019-01-09T06:29:59.838Z,-5.2
2019-01-09T06:30:50.154Z,-5.1
2019-01-09T06:31:40.231Z,-5.1
2019-01-09T06:32:30.259Z,-5.1
2019-01-09T06:33:20.172Z,-5
2019-01-09T06:34:10.159Z,-4.9
2019-01-09T06:35:00.469Z,-4.9
2019-01-09T06:35:50.108Z,-4.9
2019-01-09T06:36:40.304Z,-4.8
2019-01-09T06:37:30.849Z,-4.8
2019-01-09T06:38:20.410Z,-4.8
2019-01-09T06:39:10.435Z,-4.8
2019-01-09T06:40:00.764Z,-4.8
2019-01-09T06:40:50.686Z,-4.8
2019-01-09T06:41:40.608Z,-4.7
2019-01-09T06:42:30.390Z,-4.7
2019-01-09T06:43:21.003Z,-4.6
2019-01-09T06:44:11.123Z,-4.6
2019-01-09T06:45:00.663Z,-4.6
2019-01-09T06:45:50.905Z,-4.6
2019-01-09T06:46:40.192Z,-4.6
2019-01-09T06:47:30.995Z,-4.4
2019-01-09T06:48:20.880Z,-4.3
2019-01-09T06:49:11.100Z,-4.3
2019-01-09T06:50:00.885Z,-4.3
2019-01-09T06:50:51.587Z,-4.2
2019-01-09T06:51:41.330Z,-4.1
2019-01-09T06:52:31.590Z,-4.1
2019-01-09T06:53:21.717Z,-4.1
2019-01-09T06:54:11.458Z,-4
2019-01-09T06:55:02.192Z,-4
2019-01-09T06:55:52.028Z,-4
2019-01-09T06:56:41.601Z,-3.9
2019-01-09T06:57:31.394Z,-3.8
2019-01-09T06:58:22.678Z,-3.8
2019-01-09T06:59:11.211Z,-3.8
2019-01-09T07:00:01.874Z,-3.9
2019-01-09T07:00:51.310Z,-3.9
2019-01-09T07:02:31.710Z,-3.6
2019-01-09T07:03:22.400Z,-3.6
2019-01-09T07:04:11.910Z,-3.5
2019-01-09T07:05:01.875Z,-3.4
2019-01-09T07:05:51.785Z,-3.5
2019-01-09T07:06:42.548Z,-3.4
2019-01-09T07:07:38.434Z,-3.4
2019-01-09T07:08:22.106Z,-3.2
2019-01-09T07:09:12.717Z,-3.1
2019-01-09T07:10:04.032Z,-3
2019-01-09T07:10:52.825Z,-2.9
2019-01-09T07:11:42.320Z,-2.8
2019-01-09T07:12:32.665Z,-2.9
2019-01-09T07:13:22.712Z,-2.7
2019-01-09T07:14:12.801Z,-2.6
2019-01-09T07:15:14.337Z,-2.5
2019-01-09T07:15:52.611Z,-2.4
2019-01-09T07:16:43.039Z,-2.3
2019-01-09T07:17:33.252Z,-2.3
2019-01-09T07:18:23.327Z,-2.4
2019-01-09T07:19:13.377Z,-2.4
2019-01-09T07:20:03.537Z,-2.4
2019-01-09T07:20:53.195Z,-2.3
2019-01-09T07:21:48.244Z,-2.2
2019-01-09T07:22:33.339Z,-2.3
2019-01-09T07:23:23.372Z,-2.3
2019-01-09T07:24:13.244Z,-2.4
2019-01-09T07:25:03.796Z,-2.6
2019-01-09T07:25:53.554Z,-2.6
2019-01-09T07:26:43.894Z,-2.7
2019-01-09T07:27:33.674Z,-2.8
2019-01-09T07:28:23.439Z,-2.8
2019-01-09T07:29:13.762Z,-2.6
2019-01-09T07:30:03.871Z,-2.6
2019-01-09T07:30:54.156Z,-2.5
2019-01-09T07:31:43.938Z,-2.6
2019-01-09T07:32:33.715Z,-2.4
2019-01-09T07:33:23.782Z,-2.3
2019-01-09T07:34:13.840Z,-2.3
2019-01-09T07:35:04.271Z,-2.1
2019-01-09T07:35:54.217Z,-2.1
2019-01-09T07:36:44.374Z,-1.9
2019-01-09T07:37:34.371Z,-1.9
2019-01-09T07:38:24.661Z,-1.9
2019-01-09T07:39:14.430Z,-1.8
2019-01-09T07:40:04.513Z,-1.6
2019-01-09T07:40:54.285Z,-1.6
2019-01-09T07:41:44.865Z,-1.8
2019-01-09T07:42:34.985Z,-1.8
2019-01-09T07:43:24.455Z,-1.8
2019-01-09T07:44:14.800Z,-1.8
2019-01-09T07:45:05.115Z,-2.1
2019-01-09T07:45:55.226Z,-2.2
2019-01-09T07:46:44.943Z,-2.1
2019-01-09T07:47:35.284Z,-2.1
2019-01-09T07:48:25.077Z,-2.1
2019-01-09T07:49:15.132Z,-2.3
2019-01-09T07:50:05.450Z,-2.4
2019-01-09T07:50:55.225Z,-2.5
2019-01-09T07:51:45.015Z,-2.5
2019-01-09T07:52:35.610Z,-2.4
2019-01-09T07:53:24.660Z,-2.4
2019-01-09T07:54:15.451Z,-2.5
2019-01-09T07:55:05.533Z,-2.4
2019-01-09T07:55:55.279Z,-2.6
2019-01-09T07:56:45.071Z,-2.8
2019-01-09T07:57:34.602Z,-2.6
2019-01-09T07:58:25.465Z,-2.7
2019-01-09T07:59:16.317Z,-2.7
2019-01-09T08:00:06.122Z,-2.8
2019-01-09T08:00:55.345Z,-2.7
2019-01-09T08:01:45.959Z,-2.6
2019-01-09T08:02:36.104Z,-2.6
2019-01-09T08:03:26.060Z,-2.6
2019-01-09T08:04:15.570Z,-2.7
2019-01-09T08:05:06.190Z,-2.7
2019-01-09T08:05:56.244Z,-2.8
2019-01-09T08:06:46.579Z,-2.8
2019-01-09T08:07:36.349Z,-2.8
2019-01-09T08:08:26.411Z,-2.8
2019-01-09T08:09:16.499Z,-2.8
2019-01-09T08:10:05.711Z,-2.8
2019-01-09T08:10:56.590Z,-2.9
2019-01-09T08:11:49.052Z,-2.8
2019-01-09T08:12:36.674Z,-2.8
2019-01-09T08:13:26.185Z,-2.8
2019-01-09T08:14:17.069Z,-2.8
2019-01-09T08:15:07.131Z,-2.7
2019-01-09T08:15:57.171Z,-2.8
2019-01-09T08:16:47.228Z,-2.7
2019-01-09T08:17:36.761Z,-2.6
2019-01-09T08:18:27.133Z,-2.6
2019-01-09T08:19:17.400Z,-2.7
2019-01-09T08:20:06.909Z,-2.8
2019-01-09T08:21:06.869Z,-2.7
2019-01-09T08:21:47.021Z,-2.5
2019-01-09T08:22:37.613Z,-2.4
2019-01-09T08:23:27.416Z,-2.4
2019-01-09T08:24:17.631Z,-2.4
2019-01-09T08:25:07.329Z,-2.3
2019-01-09T08:25:57.845Z,-2.2
2019-01-09T08:26:47.908Z,-2.1
2019-01-09T08:27:37.988Z,-2.2
2019-01-09T08:28:27.743Z,-2.1
2019-01-09T08:29:17.798Z,-2.1
2019-01-09T08:30:07.861Z,-2.1
2019-01-09T08:30:58.197Z,-2.1
2019-01-09T08:31:47.968Z,-2
2019-01-09T08:32:38.132Z,-2
2019-01-09T08:33:27.829Z,-1.9
2019-01-09T08:34:18.430Z,-1.9
2019-01-09T08:35:08.200Z,-2
2019-01-09T08:35:58.514Z,-2.1
2019-01-09T08:36:48.570Z,-2.1
2019-01-09T08:37:38.347Z,-2.2
2019-01-09T08:38:28.418Z,-2.2
2019-01-09T08:39:18.484Z,-2.3
2019-01-09T08:40:08.559Z,-2.3
2019-01-09T08:40:58.642Z,-2.4
2019-01-09T08:41:48.631Z,-2.5
2019-01-09T08:42:38.698Z,-2.4
2019-01-09T08:43:28.810Z,-2.3
2019-01-09T08:44:18.517Z,-2.3
2019-01-09T08:45:08.876Z,-2.6
2019-01-09T08:45:58.372Z,-2.8
2019-01-09T08:46:48.984Z,-2.8
2019-01-09T08:47:39.064Z,-2.6
2019-01-09T08:48:29.090Z,-2.6
2019-01-09T08:49:18.882Z,-2.6
2019-01-09T08:50:09.535Z,-2.7
2019-01-09T08:50:59.512Z,-2.6
2019-01-09T08:51:49.039Z,-2.4
2019-01-09T08:52:39.487Z,-2.3
2019-01-09T08:53:29.156Z,-2.3
2019-01-09T08:54:19.819Z,-2.2
2019-01-09T08:55:09.826Z,-2.1
2019-01-09T08:55:59.870Z,-1.9
2019-01-09T08:56:49.627Z,-2.1
2019-01-09T08:57:39.707Z,-2.3
2019-01-09T08:58:30.101Z,-2.2
2019-01-09T08:59:19.264Z,-2.3
2019-01-09T09:00:10.162Z,-2.4
2019-01-09T09:00:59.944Z,-2.2
2019-01-09T09:16:56.248Z,-2.4
2019-01-09T09:17:46.218Z,-2.4
2019-01-09T09:18:36.347Z,-2.6
2019-01-09T09:19:26.687Z,-2.6
2019-01-09T09:20:16.499Z,-2.6
2019-01-09T09:21:06.505Z,-2.4
2019-01-09T09:21:56.836Z,-2.4
2019-01-09T09:22:46.319Z,-2.4
2019-01-09T09:23:36.924Z,-2.5
2019-01-09T09:24:26.522Z,-2.5
2019-01-09T09:25:16.485Z,-2.6
2019-01-09T09:26:07.092Z,-2.7
2019-01-09T09:26:56.884Z,-2.8
2019-01-09T09:27:46.102Z,-2.8
2019-01-09T09:28:36.994Z,-2.6
2019-01-09T09:29:27.049Z,-2.7
2019-01-09T09:30:17.107Z,-2.6
2019-01-09T09:31:07.211Z,-2.6
2019-01-09T09:31:57.489Z,-2.6
2019-01-09T09:32:47.071Z,-2.4
2019-01-09T09:33:36.056Z,-2.3
2019-01-09T09:34:26.618Z,-2.1
2019-01-09T09:35:17.722Z,-2.2
2019-01-09T09:36:07.221Z,-2.3
2019-01-09T09:36:57.821Z,-2.1
2019-01-09T09:37:47.624Z,-2.3
2019-01-09T09:38:37.719Z,-2.1
2019-01-09T09:39:28.021Z,-2.1
2019-01-09T09:40:17.757Z,-2.2
2019-01-09T09:41:08.098Z,-2.3
2019-01-09T09:41:57.326Z,-2.3
2019-01-09T09:42:47.673Z,-2.1
2019-01-09T09:43:38.019Z,-2.1
2019-01-09T09:44:28.338Z,-2.3
2019-01-09T09:45:18.109Z,-2.1
2019-01-09T09:46:08.483Z,-2.1
2019-01-09T09:46:58.556Z,-2.1
2019-01-09T09:47:48.288Z,-2.2
2019-01-09T09:48:37.768Z,-2.1
2019-01-09T09:49:28.668Z,-2.1
2019-01-09T09:50:18.463Z,-2.2
2019-01-09T09:51:08.285Z,-2.2
2019-01-09T09:51:58.572Z,-2.1
2019-01-09T09:52:48.355Z,-1.9
2019-01-09T09:53:38.388Z,-1.9
2019-01-09T09:54:29.013Z,-1.7
2019-01-09T09:55:18.518Z,-1.6
2019-01-09T09:56:08.565Z,-1.6
2019-01-09T09:56:58.885Z,-1.6
2019-01-09T09:57:49.030Z,-1.9
2019-01-09T09:58:39.002Z,-1.9
2019-01-09T09:59:29.347Z,-1.8
2019-01-09T10:00:18.565Z,-1.7
2019-01-09T10:01:09.165Z,-1.7
2019-01-09T10:01:59.228Z,-1.6
2019-01-09T10:02:49.066Z,-1.6
2019-01-09T10:03:39.622Z,-1.5
2019-01-09T10:04:29.380Z,-1.4
2019-01-09T10:05:19.481Z,-1.4
2019-01-09T10:06:09.225Z,-1.4
2019-01-09T10:06:59.549Z,-1.4
2019-01-09T10:07:49.329Z,-1.5
2019-01-09T10:08:39.939Z,-1.4
2019-01-09T10:09:30.011Z,-1.3
2019-01-09T10:10:19.788Z,-1.3
2019-01-09T10:11:09.674Z,-1.3
2019-01-09T10:12:00.162Z,-1.2
2019-01-09T10:12:49.404Z,-1.2
2019-01-09T10:13:39.723Z,-1.2
2019-01-09T10:14:29.501Z,-1.2
2019-01-09T10:15:20.381Z,-1.2
2019-01-09T10:16:10.181Z,-1.2
2019-01-09T10:16:59.942Z,-1.3
2019-01-09T10:17:50.559Z,-1.2
2019-01-09T10:18:39.782Z,-1.1
2019-01-09T10:19:30.379Z,-1.1
2019-01-09T10:20:19.898Z,-1.2
2019-01-09T10:21:10.509Z,-1.1
2019-01-09T10:22:00.826Z,-1.1
2019-01-09T10:22:50.896Z,-1.1
2019-01-09T10:23:40.677Z,-1.1
2019-01-09T10:24:30.986Z,-1.1
2019-01-09T10:25:20.775Z,-1.1
2019-01-09T10:26:10.276Z,-1.1
2019-01-09T10:27:00.721Z,-1
2019-01-09T10:27:51.331Z,-1.1
2019-01-09T10:28:41.001Z,-1.1
2019-01-09T10:29:31.046Z,-1
2019-01-09T10:31:10.890Z,-0.9
2019-01-09T10:33:41.348Z,-0.9
2019-01-09T10:34:31.665Z,-0.8
2019-01-09T10:35:21.818Z,-0.9
2019-01-09T10:36:11.564Z,-0.9
2019-01-09T10:37:51.902Z,-0.9
2019-01-09T10:38:41.397Z,-0.9
2019-01-09T10:39:31.993Z,-0.9
2019-01-09T10:40:22.060Z,-0.9
2019-01-09T10:41:11.848Z,-0.9
2019-01-09T10:42:01.602Z,-0.9
2019-01-09T10:42:51.401Z,-0.9
2019-01-09T10:43:41.987Z,-1
2019-01-09T10:44:32.323Z,-1.1
2019-01-09T10:46:12.505Z,-1
2019-01-09T10:47:52.629Z,-0.9
2019-01-09T10:48:42.338Z,-1
2019-01-09T10:52:52.612Z,-0.9
2019-01-09T10:53:42.669Z,-0.9
2019-01-09T10:54:32.729Z,-0.9
2019-01-09T10:55:23.069Z,-0.9
2019-01-09T10:57:02.902Z,-1
2019-01-09T10:57:52.684Z,-0.9
2019-01-09T10:58:43.001Z,-0.8
2019-01-09T10:59:32.771Z,-0.8
2019-01-09T11:00:23.118Z,-0.8
2019-01-09T11:01:12.873Z,-0.8
2019-01-09T11:02:03.516Z,-0.8
2019-01-09T11:02:53.286Z,-0.8
2019-01-09T11:03:43.341Z,-0.8
2019-01-09T11:04:33.476Z,-0.9
2019-01-09T11:05:23.727Z,-1
2019-01-09T11:06:15.986Z,-1
2019-01-09T11:07:03.590Z,-1.1
2019-01-09T11:07:53.708Z,-1.1
2019-01-09T11:08:49.948Z,-1.3
2019-01-09T11:09:33.728Z,-1.2
2019-01-09T11:10:23.783Z,-1.3
2019-01-09T11:11:13.822Z,-1.2
2019-01-09T11:12:03.893Z,-1.1
2019-01-09T11:12:54.215Z,-1.1
2019-01-09T11:13:44.278Z,-1.1
2019-01-09T11:14:34.061Z,-1.4
2019-01-09T11:15:24.408Z,-1.4
2019-01-09T11:16:13.905Z,-1.6
2019-01-09T11:17:04.490Z,-1.8
2019-01-09T11:17:54.005Z,-1.8
2019-01-09T11:18:44.093Z,-1.7
2019-01-09T11:19:34.117Z,-1.7
2019-01-09T11:20:24.172Z,-1.8
2019-01-09T11:21:14.777Z,-1.9
2019-01-09T11:22:04.583Z,-1.9
2019-01-09T11:22:54.895Z,-1.8
2019-01-09T11:23:44.380Z,-1.7
2019-01-09T11:24:34.719Z,-1.8
2019-01-09T11:25:25.050Z,-1.6
2019-01-09T11:26:16.611Z,-1.6
2019-01-09T11:27:05.360Z,-1.4
2019-01-09T11:27:54.684Z,-1.4
2019-01-09T11:28:45.379Z,-1.3
2019-01-09T11:29:35.337Z,-1.3
2019-01-09T11:30:25.424Z,-1.4
2019-01-09T11:31:15.437Z,-1.3
2019-01-09T11:32:05.517Z,-1.3
2019-01-09T11:32:54.549Z,-1.3
2019-01-09T11:33:44.792Z,-1.2
2019-01-09T11:34:35.657Z,-1.3
2019-01-09T11:35:25.732Z,-1.3
2019-01-09T11:36:15.762Z,-1.3
2019-01-09T11:37:05.829Z,-1.3
2019-01-09T11:37:55.567Z,-1.4
2019-01-09T11:38:45.121Z,-1.4
2019-01-09T11:39:35.451Z,-1.4
2019-01-09T11:40:25.788Z,-1.5
2019-01-09T11:41:15.574Z,-1.6
2019-01-09T11:42:06.169Z,-1.5
2019-01-09T11:42:55.951Z,-1.6
2019-01-09T11:43:46.276Z,-1.7
2019-01-09T11:44:36.152Z,-1.6
2019-01-09T11:45:25.849Z,-1.5
2019-01-09T11:46:15.886Z,-1.4
2019-01-09T11:47:06.508Z,-1.5
2019-01-09T11:47:56.185Z,-1.4
2019-01-09T11:48:46.068Z,-1.4
2019-01-09T11:49:36.445Z,-1.5
2019-01-09T11:50:26.711Z,-1.5
2019-01-09T11:51:16.815Z,-1.4
2019-01-09T11:52:06.563Z,-1.4
2019-01-09T11:52:56.883Z,-1.4
2019-01-09T11:53:46.653Z,-1.5
2019-01-09T11:54:36.728Z,-1.4
2019-01-09T11:55:27.161Z,-1.5
2019-01-09T11:56:17.116Z,-1.5
2019-01-09T11:57:06.628Z,-1.6
2019-01-09T11:57:56.943Z,-1.5
2019-01-09T11:58:46.991Z,-1.4
2019-01-09T11:59:36.860Z,-1.5
2019-01-09T12:00:27.114Z,-1.4
2019-01-09T12:01:17.170Z,-1.4
2019-01-09T12:02:07.498Z,-1.6
2019-01-09T12:02:57.038Z,-1.6
2019-01-09T12:03:47.607Z,-1.6
2019-01-09T12:04:37.001Z,-1.6
2019-01-09T12:05:27.434Z,-1.5
2019-01-09T12:06:17.625Z,-1.5
2019-01-09T12:07:07.557Z,-1.5
2019-01-09T12:07:57.877Z,-1.6
2019-01-09T12:08:49.946Z,-1.6
2019-01-09T12:09:37.432Z,-1.6
2019-01-09T12:10:32.637Z,-1.7
2019-01-09T12:11:17.835Z,-1.7
2019-01-09T12:12:08.192Z,-1.6
2019-01-09T12:12:57.937Z,-1.6
2019-01-09T12:13:48.016Z,-1.6
2019-01-09T12:14:38.059Z,-1.5
2019-01-09T12:15:28.399Z,-1.6
2019-01-09T12:16:18.174Z,-1.6
2019-01-09T12:17:08.509Z,-1.7
2019-01-09T12:17:58.274Z,-1.7
2019-01-09T12:18:48.612Z,-1.7
2019-01-09T12:19:38.154Z,-1.7
2019-01-09T12:20:28.721Z,-1.7
2019-01-09T12:23:19.189Z,-1.7
2019-01-09T12:23:30.499Z,-1.6
2019-01-09T12:24:20.299Z,-1.6
2019-01-09T12:25:10.611Z,-1.7